sensor_id;sensor_type;location;lat;lon;timestamp;P1;durP1;ratioP1;P2;durP2;ratioP2
41711;SDS011;27399;51.516;13.670;2023-03-23T00:01:04;2.22;;;1.67;;
41711;SDS011;27399;51.516;13.670;2023-03-23T00:03:31;3.78;;;1.20;;
41711;SDS011;27399;51.516;13.670;2023-03-23T00:06:00;3.60;;;1.60;;
41711;SDS011;27399;51.516;13.670;2023-03-23T00:08:39;2.75;;;1.30;;
41711;SDS011;27399;51.516;13.670;2023-03-23T00:11:10;4.00;;;1.27;;
41711;SDS011;27399;51.516;13.670;2023-03-23T00:13:39;2.38;;;1.38;;
41711;SDS011;27399;51.516;13.670;2023-03-23T00:16:06;4.15;;;1.60;;
41711;SDS011;27399;51.516;13.670;2023-03-23T00:18:42;5.70;;;1.70;;
41711;SDS011;27399;51.516;13.670;2023-03-23T00:27:55;6.40;;;1.75;;
41711;SDS011;27399;51.516;13.670;2023-03-23T00:30:21;2.92;;;1.20;;
41711;SDS011;27399;51.516;13.670;2023-03-23T00:32:47;2.42;;;1.50;;
41711;SDS011;27399;51.516;13.670;2023-03-23T00:35:13;2.08;;;1.20;;
41711;SDS011;27399;51.516;13.670;2023-03-23T00:37:39;7.78;;;1.42;;
41711;SDS011;27399;51.516;13.670;2023-03-23T00:40:05;3.00;;;1.40;;
41711;SDS011;27399;51.516;13.670;2023-03-23T00:42:34;3.58;;;1.20;;
41711;SDS011;27399;51.516;13.670;2023-03-23T00:45:03;3.88;;;1.30;;
41711;SDS011;27399;51.516;13.670;2023-03-23T00:47:36;2.35;;;1.42;;
41711;SDS011;27399;51.516;13.670;2023-03-23T00:50:03;3.17;;;1.42;;
41711;SDS011;27399;51.516;13.670;2023-03-23T00:52:30;2.45;;;1.52;;
41711;SDS011;27399;51.516;13.670;2023-03-23T00:54:56;6.05;;;1.75;;
41711;SDS011;27399;51.516;13.670;2023-03-23T00:57:22;3.05;;;1.50;;
41711;SDS011;27399;51.516;13.670;2023-03-23T00:59:49;4.72;;;1.42;;
41711;SDS011;27399;51.516;13.670;2023-03-23T01:02:16;5.40;;;1.67;;
41711;SDS011;27399;51.516;13.670;2023-03-23T01:04:43;6.47;;;1.50;;
41711;SDS011;27399;51.516;13.670;2023-03-23T01:07:11;4.22;;;1.38;;
41711;SDS011;27399;51.516;13.670;2023-03-23T01:09:38;9.82;;;1.30;;
41711;SDS011;27399;51.516;13.670;2023-03-23T01:12:09;6.25;;;1.45;;
41711;SDS011;27399;51.516;13.670;2023-03-23T01:14:35;3.78;;;1.50;;
41711;SDS011;27399;51.516;13.670;2023-03-23T01:17:01;2.97;;;1.40;;
41711;SDS011;27399;51.516;13.670;2023-03-23T01:19:27;4.07;;;1.60;;
41711;SDS011;27399;51.516;13.670;2023-03-23T01:21:52;6.90;;;1.60;;
41711;SDS011;27399;51.516;13.670;2023-03-23T01:24:18;5.45;;;1.40;;
41711;SDS011;27399;51.516;13.670;2023-03-23T01:26:44;2.28;;;1.00;;
41711;SDS011;27399;51.516;13.670;2023-03-23T01:29:10;5.88;;;1.60;;
41711;SDS011;27399;51.516;13.670;2023-03-23T01:31:35;3.10;;;1.35;;
41711;SDS011;27399;51.516;13.670;2023-03-23T01:34:02;2.40;;;1.50;;
41711;SDS011;27399;51.516;13.670;2023-03-23T01:36:29;4.35;;;1.50;;
41711;SDS011;27399;51.516;13.670;2023-03-23T01:38:58;1.88;;;1.33;;
41711;SDS011;27399;51.516;13.670;2023-03-23T01:41:26;3.35;;;1.55;;
41711;SDS011;27399;51.516;13.670;2023-03-23T01:44:03;2.22;;;1.50;;
41711;SDS011;27399;51.516;13.670;2023-03-23T01:46:32;4.55;;;1.45;;
41711;SDS011;27399;51.516;13.670;2023-03-23T01:49:08;3.38;;;1.77;;
41711;SDS011;27399;51.516;13.670;2023-03-23T01:51:39;1.98;;;1.20;;
41711;SDS011;27399;51.516;13.670;2023-03-23T01:54:10;4.55;;;1.40;;
41711;SDS011;27399;51.516;13.670;2023-03-23T01:56:48;2.80;;;1.48;;
41711;SDS011;27399;51.516;13.670;2023-03-23T01:59:19;3.85;;;1.52;;
41711;SDS011;27399;51.516;13.670;2023-03-23T02:01:47;3.75;;;1.80;;
41711;SDS011;27399;51.516;13.670;2023-03-23T02:04:13;3.65;;;1.60;;
41711;SDS011;27399;51.516;13.670;2023-03-23T02:06:41;2.80;;;1.63;;
41711;SDS011;27399;51.516;13.670;2023-03-23T02:09:09;6.00;;;1.48;;
41711;SDS011;27399;51.516;13.670;2023-03-23T02:11:38;2.50;;;1.50;;
41711;SDS011;27399;51.516;13.670;2023-03-23T02:14:05;2.05;;;1.20;;
41711;SDS011;27399;51.516;13.670;2023-03-23T02:22:11;2.60;;;1.55;;
41711;SDS011;27399;51.516;13.670;2023-03-23T02:30:41;2.88;;;1.10;;
41711;SDS011;27399;51.516;13.670;2023-03-23T02:35:54;2.42;;;1.20;;
41711;SDS011;27399;51.516;13.670;2023-03-23T02:38:30;2.83;;;1.08;;
41711;SDS011;27399;51.516;13.670;2023-03-23T02:41:00;2.28;;;1.10;;
41711;SDS011;27399;51.516;13.670;2023-03-23T02:43:30;2.38;;;1.17;;
41711;SDS011;27399;51.516;13.670;2023-03-23T02:46:02;2.22;;;0.90;;
41711;SDS011;27399;51.516;13.670;2023-03-23T02:48:31;1.20;;;0.80;;
41711;SDS011;27399;51.516;13.670;2023-03-23T02:50:58;1.90;;;1.10;;
41711;SDS011;27399;51.516;13.670;2023-03-23T02:53:25;4.32;;;1.15;;
41711;SDS011;27399;51.516;13.670;2023-03-23T02:55:54;1.42;;;0.90;;
41711;SDS011;27399;51.516;13.670;2023-03-23T02:58:21;2.38;;;1.08;;
41711;SDS011;27399;51.516;13.670;2023-03-23T03:00:48;2.08;;;0.80;;
41711;SDS011;27399;51.516;13.670;2023-03-23T03:03:16;1.95;;;0.70;;
41711;SDS011;27399;51.516;13.670;2023-03-23T03:11:17;0.98;;;0.80;;
41711;SDS011;27399;51.516;13.670;2023-03-23T03:13:48;2.40;;;1.13;;
41711;SDS011;27399;51.516;13.670;2023-03-23T03:19:29;1.98;;;0.90;;
41711;SDS011;27399;51.516;13.670;2023-03-23T03:22:01;3.38;;;1.10;;
41711;SDS011;27399;51.516;13.670;2023-03-23T03:24:28;1.33;;;0.98;;
41711;SDS011;27399;51.516;13.670;2023-03-23T03:26:57;2.38;;;0.98;;
41711;SDS011;27399;51.516;13.670;2023-03-23T03:29:26;1.70;;;0.82;;
41711;SDS011;27399;51.516;13.670;2023-03-23T03:31:57;3.83;;;0.80;;
41711;SDS011;27399;51.516;13.670;2023-03-23T03:34:25;1.33;;;0.82;;
41711;SDS011;27399;51.516;13.670;2023-03-23T03:36:51;2.58;;;1.10;;
41711;SDS011;27399;51.516;13.670;2023-03-23T03:39:20;0.82;;;0.65;;
41711;SDS011;27399;51.516;13.670;2023-03-23T03:41:46;3.63;;;0.82;;
41711;SDS011;27399;51.516;13.670;2023-03-23T03:44:13;1.00;;;0.70;;
41711;SDS011;27399;51.516;13.670;2023-03-23T03:46:38;1.75;;;0.90;;
41711;SDS011;27399;51.516;13.670;2023-03-23T03:49:06;1.85;;;1.00;;
41711;SDS011;27399;51.516;13.670;2023-03-23T03:51:34;1.27;;;0.88;;
41711;SDS011;27399;51.516;13.670;2023-03-23T03:54:01;2.60;;;0.88;;
41711;SDS011;27399;51.516;13.670;2023-03-23T03:56:27;1.13;;;0.65;;
41711;SDS011;27399;51.516;13.670;2023-03-23T03:58:53;2.92;;;0.85;;
41711;SDS011;27399;51.516;13.670;2023-03-23T04:01:20;2.10;;;0.95;;
41711;SDS011;27399;51.516;13.670;2023-03-23T04:03:48;2.63;;;0.90;;
41711;SDS011;27399;51.516;13.670;2023-03-23T04:06:14;1.45;;;1.10;;
41711;SDS011;27399;51.516;13.670;2023-03-23T04:08:39;2.92;;;0.70;;
41711;SDS011;27399;51.516;13.670;2023-03-23T04:11:07;1.17;;;0.75;;
41711;SDS011;27399;51.516;13.670;2023-03-23T04:13:33;2.38;;;0.60;;
41711;SDS011;27399;51.516;13.670;2023-03-23T04:15:58;0.95;;;0.60;;
41711;SDS011;27399;51.516;13.670;2023-03-23T04:18:25;1.58;;;0.88;;
41711;SDS011;27399;51.516;13.670;2023-03-23T04:20:51;1.83;;;0.80;;
41711;SDS011;27399;51.516;13.670;2023-03-23T04:23:17;2.13;;;0.90;;
41711;SDS011;27399;51.516;13.670;2023-03-23T04:25:48;1.77;;;0.90;;
41711;SDS011;27399;51.516;13.670;2023-03-23T04:28:15;1.42;;;0.60;;
41711;SDS011;27399;51.516;13.670;2023-03-23T04:30:48;4.28;;;1.20;;
41711;SDS011;27399;51.516;13.670;2023-03-23T04:33:18;2.17;;;0.80;;
41711;SDS011;27399;51.516;13.670;2023-03-23T04:35:45;1.17;;;0.73;;
41711;SDS011;27399;51.516;13.670;2023-03-23T04:38:13;1.73;;;0.63;;
41711;SDS011;27399;51.516;13.670;2023-03-23T04:40:41;6.32;;;0.80;;
41711;SDS011;27399;51.516;13.670;2023-03-23T04:43:08;1.77;;;0.80;;
41711;SDS011;27399;51.516;13.670;2023-03-23T04:45:37;1.92;;;0.90;;
41711;SDS011;27399;51.516;13.670;2023-03-23T04:48:06;3.80;;;0.80;;
41711;SDS011;27399;51.516;13.670;2023-03-23T04:50:33;1.48;;;1.20;;
41711;SDS011;27399;51.516;13.670;2023-03-23T04:53:00;1.25;;;0.70;;
41711;SDS011;27399;51.516;13.670;2023-03-23T04:55:33;2.67;;;0.70;;
41711;SDS011;27399;51.516;13.670;2023-03-23T04:58:04;2.95;;;0.80;;
41711;SDS011;27399;51.516;13.670;2023-03-23T05:00:33;0.95;;;0.70;;
41711;SDS011;27399;51.516;13.670;2023-03-23T05:03:00;1.98;;;0.90;;
41711;SDS011;27399;51.516;13.670;2023-03-23T05:05:26;2.47;;;0.73;;
41711;SDS011;27399;51.516;13.670;2023-03-23T05:07:54;1.67;;;0.95;;
41711;SDS011;27399;51.516;13.670;2023-03-23T05:10:20;2.72;;;0.68;;
41711;SDS011;27399;51.516;13.670;2023-03-23T05:12:46;1.83;;;0.82;;
41711;SDS011;27399;51.516;13.670;2023-03-23T05:15:13;1.38;;;0.98;;
41711;SDS011;27399;51.516;13.670;2023-03-23T05:17:40;2.63;;;1.00;;
41711;SDS011;27399;51.516;13.670;2023-03-23T05:20:12;2.33;;;0.80;;
41711;SDS011;27399;51.516;13.670;2023-03-23T05:22:40;2.38;;;0.75;;
41711;SDS011;27399;51.516;13.670;2023-03-23T05:25:06;1.23;;;0.90;;
41711;SDS011;27399;51.516;13.670;2023-03-23T05:27:36;1.67;;;0.90;;
41711;SDS011;27399;51.516;13.670;2023-03-23T05:30:04;3.22;;;1.23;;
41711;SDS011;27399;51.516;13.670;2023-03-23T05:32:31;2.30;;;1.00;;
41711;SDS011;27399;51.516;13.670;2023-03-23T05:34:57;2.72;;;1.10;;
41711;SDS011;27399;51.516;13.670;2023-03-23T05:37:24;3.50;;;1.05;;
41711;SDS011;27399;51.516;13.670;2023-03-23T05:39:52;3.15;;;1.00;;
41711;SDS011;27399;51.516;13.670;2023-03-23T05:42:20;2.15;;;0.98;;
41711;SDS011;27399;51.516;13.670;2023-03-23T05:44:47;1.48;;;1.08;;
41711;SDS011;27399;51.516;13.670;2023-03-23T05:47:12;2.95;;;1.00;;
41711;SDS011;27399;51.516;13.670;2023-03-23T05:49:38;1.70;;;1.10;;
41711;SDS011;27399;51.516;13.670;2023-03-23T05:52:04;1.73;;;1.00;;
41711;SDS011;27399;51.516;13.670;2023-03-23T05:54:29;6.65;;;1.67;;
41711;SDS011;27399;51.516;13.670;2023-03-23T05:56:55;1.80;;;0.98;;
41711;SDS011;27399;51.516;13.670;2023-03-23T05:59:22;1.73;;;1.00;;
41711;SDS011;27399;51.516;13.670;2023-03-23T06:01:48;1.35;;;1.08;;
41711;SDS011;27399;51.516;13.670;2023-03-23T06:04:14;2.20;;;1.10;;
41711;SDS011;27399;51.516;13.670;2023-03-23T06:06:40;3.72;;;1.30;;
41711;SDS011;27399;51.516;13.670;2023-03-23T06:09:06;1.55;;;1.02;;
41711;SDS011;27399;51.516;13.670;2023-03-23T06:11:32;3.55;;;1.45;;
41711;SDS011;27399;51.516;13.670;2023-03-23T06:13:59;2.30;;;1.17;;
41711;SDS011;27399;51.516;13.670;2023-03-23T06:16:24;2.10;;;1.00;;
41711;SDS011;27399;51.516;13.670;2023-03-23T06:18:50;1.55;;;0.82;;
41711;SDS011;27399;51.516;13.670;2023-03-23T06:21:16;3.38;;;1.40;;
41711;SDS011;27399;51.516;13.670;2023-03-23T06:23:44;2.85;;;1.42;;
41711;SDS011;27399;51.516;13.670;2023-03-23T06:26:11;4.95;;;1.00;;
41711;SDS011;27399;51.516;13.670;2023-03-23T06:31:07;1.48;;;0.95;;
41711;SDS011;27399;51.516;13.670;2023-03-23T06:33:34;1.67;;;0.93;;
41711;SDS011;27399;51.516;13.670;2023-03-23T06:36:00;2.55;;;0.90;;
41711;SDS011;27399;51.516;13.670;2023-03-23T06:38:27;1.17;;;0.95;;
41711;SDS011;27399;51.516;13.670;2023-03-23T06:40:53;1.48;;;1.00;;
41711;SDS011;27399;51.516;13.670;2023-03-23T06:43:19;2.97;;;1.20;;
41711;SDS011;27399;51.516;13.670;2023-03-23T06:45:45;4.47;;;1.08;;
41711;SDS011;27399;51.516;13.670;2023-03-23T06:48:11;8.48;;;1.15;;
41711;SDS011;27399;51.516;13.670;2023-03-23T06:50:37;2.05;;;1.15;;
41711;SDS011;27399;51.516;13.670;2023-03-23T06:53:03;4.32;;;1.50;;
41711;SDS011;27399;51.516;13.670;2023-03-23T06:55:28;1.73;;;1.10;;
41711;SDS011;27399;51.516;13.670;2023-03-23T06:57:54;4.82;;;1.17;;
41711;SDS011;27399;51.516;13.670;2023-03-23T07:00:20;3.90;;;1.23;;
41711;SDS011;27399;51.516;13.670;2023-03-23T07:02:45;4.78;;;1.17;;
41711;SDS011;27399;51.516;13.670;2023-03-23T07:05:12;3.63;;;1.33;;
41711;SDS011;27399;51.516;13.670;2023-03-23T07:07:38;2.65;;;0.90;;
41711;SDS011;27399;51.516;13.670;2023-03-23T07:10:05;5.70;;;1.50;;
41711;SDS011;27399;51.516;13.670;2023-03-23T07:12:34;2.70;;;1.30;;
41711;SDS011;27399;51.516;13.670;2023-03-23T07:15:01;1.77;;;1.20;;
41711;SDS011;27399;51.516;13.670;2023-03-23T07:17:27;3.03;;;1.23;;
41711;SDS011;27399;51.516;13.670;2023-03-23T07:19:53;2.13;;;0.98;;
41711;SDS011;27399;51.516;13.670;2023-03-23T07:22:19;3.13;;;1.17;;
41711;SDS011;27399;51.516;13.670;2023-03-23T07:24:45;2.63;;;1.00;;
41711;SDS011;27399;51.516;13.670;2023-03-23T07:27:11;3.97;;;0.90;;
41711;SDS011;27399;51.516;13.670;2023-03-23T07:29:37;3.65;;;1.50;;
41711;SDS011;27399;51.516;13.670;2023-03-23T07:32:04;3.20;;;1.00;;
41711;SDS011;27399;51.516;13.670;2023-03-23T07:34:30;3.08;;;0.93;;
41711;SDS011;27399;51.516;13.670;2023-03-23T07:36:57;4.15;;;1.20;;
41711;SDS011;27399;51.516;13.670;2023-03-23T07:39:23;2.88;;;0.98;;
41711;SDS011;27399;51.516;13.670;2023-03-23T07:41:49;2.28;;;0.90;;
41711;SDS011;27399;51.516;13.670;2023-03-23T07:44:15;2.33;;;1.08;;
41711;SDS011;27399;51.516;13.670;2023-03-23T07:46:41;4.68;;;1.00;;
41711;SDS011;27399;51.516;13.670;2023-03-23T07:49:07;3.20;;;1.35;;
41711;SDS011;27399;51.516;13.670;2023-03-23T07:51:33;2.00;;;1.20;;
41711;SDS011;27399;51.516;13.670;2023-03-23T07:53:59;4.05;;;1.67;;
41711;SDS011;27399;51.516;13.670;2023-03-23T07:56:27;1.25;;;0.98;;
41711;SDS011;27399;51.516;13.670;2023-03-23T07:58:53;1.98;;;0.98;;
41711;SDS011;27399;51.516;13.670;2023-03-23T08:01:19;3.05;;;1.00;;
41711;SDS011;27399;51.516;13.670;2023-03-23T08:03:45;3.97;;;1.40;;
41711;SDS011;27399;51.516;13.670;2023-03-23T08:06:10;1.98;;;1.10;;
41711;SDS011;27399;51.516;13.670;2023-03-23T08:08:36;1.60;;;0.98;;
41711;SDS011;27399;51.516;13.670;2023-03-23T08:11:02;3.58;;;1.17;;
41711;SDS011;27399;51.516;13.670;2023-03-23T08:13:28;4.18;;;1.10;;
41711;SDS011;27399;51.516;13.670;2023-03-23T08:15:54;4.85;;;1.30;;
41711;SDS011;27399;51.516;13.670;2023-03-23T08:18:21;1.60;;;1.20;;
41711;SDS011;27399;51.516;13.670;2023-03-23T08:20:47;2.47;;;1.13;;
41711;SDS011;27399;51.516;13.670;2023-03-23T08:23:14;4.47;;;1.67;;
41711;SDS011;27399;51.516;13.670;2023-03-23T08:25:41;2.92;;;1.50;;
41711;SDS011;27399;51.516;13.670;2023-03-23T08:28:08;3.90;;;1.27;;
41711;SDS011;27399;51.516;13.670;2023-03-23T08:30:34;5.53;;;1.42;;
41711;SDS011;27399;51.516;13.670;2023-03-23T08:33:01;3.03;;;1.73;;
41711;SDS011;27399;51.516;13.670;2023-03-23T08:35:27;1.88;;;1.10;;
41711;SDS011;27399;51.516;13.670;2023-03-23T08:37:53;2.03;;;1.05;;
41711;SDS011;27399;51.516;13.670;2023-03-23T08:40:20;2.35;;;1.35;;
41711;SDS011;27399;51.516;13.670;2023-03-23T08:42:48;1.83;;;0.95;;
41711;SDS011;27399;51.516;13.670;2023-03-23T08:45:18;2.50;;;1.33;;
41711;SDS011;27399;51.516;13.670;2023-03-23T08:47:45;2.60;;;1.20;;
41711;SDS011;27399;51.516;13.670;2023-03-23T08:50:17;2.55;;;1.20;;
41711;SDS011;27399;51.516;13.670;2023-03-23T08:52:45;2.35;;;1.30;;
41711;SDS011;27399;51.516;13.670;2023-03-23T08:55:12;3.17;;;1.40;;
41711;SDS011;27399;51.516;13.670;2023-03-23T08:57:37;2.33;;;0.90;;
41711;SDS011;27399;51.516;13.670;2023-03-23T09:00:06;2.40;;;0.90;;
41711;SDS011;27399;51.516;13.670;2023-03-23T09:02:39;1.92;;;1.00;;
41711;SDS011;27399;51.516;13.670;2023-03-23T09:05:06;4.25;;;1.10;;
41711;SDS011;27399;51.516;13.670;2023-03-23T09:07:32;3.95;;;1.40;;
41711;SDS011;27399;51.516;13.670;2023-03-23T09:09:58;1.20;;;1.05;;
41711;SDS011;27399;51.516;13.670;2023-03-23T09:12:23;3.35;;;1.30;;
41711;SDS011;27399;51.516;13.670;2023-03-23T09:14:49;4.63;;;1.02;;
41711;SDS011;27399;51.516;13.670;2023-03-23T09:17:15;2.33;;;1.20;;
41711;SDS011;27399;51.516;13.670;2023-03-23T09:19:40;2.45;;;1.33;;
41711;SDS011;27399;51.516;13.670;2023-03-23T09:22:06;4.28;;;1.52;;
41711;SDS011;27399;51.516;13.670;2023-03-23T09:24:33;2.80;;;1.65;;
41711;SDS011;27399;51.516;13.670;2023-03-23T09:26:59;6.63;;;1.60;;
41711;SDS011;27399;51.516;13.670;2023-03-23T09:29:25;2.05;;;1.70;;
41711;SDS011;27399;51.516;13.670;2023-03-23T09:31:52;3.08;;;1.30;;
41711;SDS011;27399;51.516;13.670;2023-03-23T09:34:18;3.13;;;1.58;;
41711;SDS011;27399;51.516;13.670;2023-03-23T09:36:44;2.92;;;1.35;;
41711;SDS011;27399;51.516;13.670;2023-03-23T09:39:11;3.47;;;1.63;;
41711;SDS011;27399;51.516;13.670;2023-03-23T09:47:05;2.78;;;1.58;;
41711;SDS011;27399;51.516;13.670;2023-03-23T09:49:56;1.65;;;1.30;;
41711;SDS011;27399;51.516;13.670;2023-03-23T09:52:48;3.20;;;1.23;;
41711;SDS011;27399;51.516;13.670;2023-03-23T09:55:21;5.47;;;1.52;;
41711;SDS011;27399;51.516;13.670;2023-03-23T10:00:40;2.05;;;1.10;;
41711;SDS011;27399;51.516;13.670;2023-03-23T10:03:15;2.33;;;1.20;;
41711;SDS011;27399;51.516;13.670;2023-03-23T10:08:20;2.47;;;1.60;;
41711;SDS011;27399;51.516;13.670;2023-03-23T10:16:03;3.88;;;1.30;;
41711;SDS011;27399;51.516;13.670;2023-03-23T10:18:38;4.20;;;1.20;;
41711;SDS011;27399;51.516;13.670;2023-03-23T10:21:19;2.15;;;1.52;;
41711;SDS011;27399;51.516;13.670;2023-03-23T10:23:51;2.78;;;1.38;;
41711;SDS011;27399;51.516;13.670;2023-03-23T10:30:13;1.85;;;1.38;;
41711;SDS011;27399;51.516;13.670;2023-03-23T10:32:40;2.67;;;1.23;;
41711;SDS011;27399;51.516;13.670;2023-03-23T10:35:16;3.05;;;1.20;;
41711;SDS011;27399;51.516;13.670;2023-03-23T10:37:50;3.28;;;1.73;;
41711;SDS011;27399;51.516;13.670;2023-03-23T10:40:22;4.78;;;1.30;;
41711;SDS011;27399;51.516;13.670;2023-03-23T10:42:52;4.10;;;1.73;;
41711;SDS011;27399;51.516;13.670;2023-03-23T10:45:23;2.67;;;1.40;;
41711;SDS011;27399;51.516;13.670;2023-03-23T10:48:05;2.85;;;1.50;;
41711;SDS011;27399;51.516;13.670;2023-03-23T10:50:37;1.50;;;1.30;;
41711;SDS011;27399;51.516;13.670;2023-03-23T10:53:11;3.55;;;1.80;;
41711;SDS011;27399;51.516;13.670;2023-03-23T10:55:43;1.83;;;1.23;;
41711;SDS011;27399;51.516;13.670;2023-03-23T10:58:10;1.35;;;1.10;;
41711;SDS011;27399;51.516;13.670;2023-03-23T11:00:47;2.85;;;1.73;;
41711;SDS011;27399;51.516;13.670;2023-03-23T11:05:42;2.00;;;1.52;;
41711;SDS011;27399;51.516;13.670;2023-03-23T11:08:13;3.20;;;1.40;;
41711;SDS011;27399;51.516;13.670;2023-03-23T11:11:28;3.65;;;1.30;;
41711;SDS011;27399;51.516;13.670;2023-03-23T11:13:43;3.42;;;1.38;;
41711;SDS011;27399;51.516;13.670;2023-03-23T11:16:32;2.13;;;1.13;;
41711;SDS011;27399;51.516;13.670;2023-03-23T11:18:59;4.53;;;1.60;;
41711;SDS011;27399;51.516;13.670;2023-03-23T11:21:37;3.75;;;1.50;;
41711;SDS011;27399;51.516;13.670;2023-03-23T11:24:04;3.05;;;1.63;;
41711;SDS011;27399;51.516;13.670;2023-03-23T11:26:32;2.33;;;1.23;;
41711;SDS011;27399;51.516;13.670;2023-03-23T11:29:03;2.05;;;1.40;;
41711;SDS011;27399;51.516;13.670;2023-03-23T11:31:32;1.38;;;1.08;;
41711;SDS011;27399;51.516;13.670;2023-03-23T11:34:05;1.58;;;1.15;;
41711;SDS011;27399;51.516;13.670;2023-03-23T11:36:48;2.80;;;1.20;;
41711;SDS011;27399;51.516;13.670;2023-03-23T11:39:31;2.47;;;1.30;;
41711;SDS011;27399;51.516;13.670;2023-03-23T11:42:01;2.75;;;1.40;;
41711;SDS011;27399;51.516;13.670;2023-03-23T11:44:42;1.50;;;1.10;;
41711;SDS011;27399;51.516;13.670;2023-03-23T11:47:16;3.65;;;1.20;;
41711;SDS011;27399;51.516;13.670;2023-03-23T11:49:55;3.55;;;1.45;;
41711;SDS011;27399;51.516;13.670;2023-03-23T11:58:27;1.80;;;1.20;;
41711;SDS011;27399;51.516;13.670;2023-03-23T12:23:17;2.05;;;1.30;;
41711;SDS011;27399;51.516;13.670;2023-03-23T12:25:58;2.10;;;1.40;;
41711;SDS011;27399;51.516;13.670;2023-03-23T12:34:17;1.65;;;1.20;;
41711;SDS011;27399;51.516;13.670;2023-03-23T12:42:39;4.97;;;1.83;;
41711;SDS011;27399;51.516;13.670;2023-03-23T12:45:37;2.40;;;1.17;;
41711;SDS011;27399;51.516;13.670;2023-03-23T12:48:13;3.10;;;1.30;;
41711;SDS011;27399;51.516;13.670;2023-03-23T12:53:22;2.40;;;1.30;;
41711;SDS011;27399;51.516;13.670;2023-03-23T12:56:13;1.83;;;1.20;;
41711;SDS011;27399;51.516;13.670;2023-03-23T12:58:47;3.58;;;1.42;;
41711;SDS011;27399;51.516;13.670;2023-03-23T13:01:21;2.97;;;1.58;;
41711;SDS011;27399;51.516;13.670;2023-03-23T13:11:43;2.13;;;1.42;;
41711;SDS011;27399;51.516;13.670;2023-03-23T13:17:05;1.77;;;1.30;;
41711;SDS011;27399;51.516;13.670;2023-03-23T13:22:47;2.50;;;1.00;;
41711;SDS011;27399;51.516;13.670;2023-03-23T13:25:25;1.88;;;1.38;;
41711;SDS011;27399;51.516;13.670;2023-03-23T13:28:04;2.67;;;1.45;;
41711;SDS011;27399;51.516;13.670;2023-03-23T13:30:30;3.83;;;1.50;;
41711;SDS011;27399;51.516;13.670;2023-03-23T13:33:14;5.30;;;1.48;;
41711;SDS011;27399;51.516;13.670;2023-03-23T13:35:40;1.92;;;1.40;;
41711;SDS011;27399;51.516;13.670;2023-03-23T13:38:12;2.05;;;1.23;;
41711;SDS011;27399;51.516;13.670;2023-03-23T13:40:50;2.15;;;1.30;;
41711;SDS011;27399;51.516;13.670;2023-03-23T13:43:27;1.25;;;1.10;;
41711;SDS011;27399;51.516;13.670;2023-03-23T13:46:07;2.97;;;1.20;;
41711;SDS011;27399;51.516;13.670;2023-03-23T13:48:40;1.83;;;1.00;;
41711;SDS011;27399;51.516;13.670;2023-03-23T13:51:23;1.45;;;1.15;;
41711;SDS011;27399;51.516;13.670;2023-03-23T13:54:07;2.47;;;1.20;;
41711;SDS011;27399;51.516;13.670;2023-03-23T14:05:08;1.83;;;1.10;;
41711;SDS011;27399;51.516;13.670;2023-03-23T14:07:53;2.55;;;1.00;;
41711;SDS011;27399;51.516;13.670;2023-03-23T14:10:21;2.00;;;1.50;;
41711;SDS011;27399;51.516;13.670;2023-03-23T14:12:49;4.78;;;1.10;;
41711;SDS011;27399;51.516;13.670;2023-03-23T14:15:18;2.20;;;1.00;;
41711;SDS011;27399;51.516;13.670;2023-03-23T14:17:44;1.52;;;1.00;;
41711;SDS011;27399;51.516;13.670;2023-03-23T14:20:20;3.05;;;1.30;;
41711;SDS011;27399;51.516;13.670;2023-03-23T14:22:55;4.65;;;1.60;;
41711;SDS011;27399;51.516;13.670;2023-03-23T14:25:21;2.67;;;1.00;;
41711;SDS011;27399;51.516;13.670;2023-03-23T14:27:51;1.25;;;0.90;;
41711;SDS011;27399;51.516;13.670;2023-03-23T14:30:19;3.40;;;0.90;;
41711;SDS011;27399;51.516;13.670;2023-03-23T14:32:47;1.52;;;0.85;;
41711;SDS011;27399;51.516;13.670;2023-03-23T14:37:42;1.80;;;1.05;;
41711;SDS011;27399;51.516;13.670;2023-03-23T14:40:12;1.98;;;1.23;;
41711;SDS011;27399;51.516;13.670;2023-03-23T14:42:41;1.38;;;0.90;;
41711;SDS011;27399;51.516;13.670;2023-03-23T14:45:10;2.03;;;1.00;;
41711;SDS011;27399;51.516;13.670;2023-03-23T14:47:42;3.90;;;0.80;;
41711;SDS011;27399;51.516;13.670;2023-03-23T14:50:35;2.03;;;0.80;;
41711;SDS011;27399;51.516;13.670;2023-03-23T14:53:02;1.00;;;0.90;;
41711;SDS011;27399;51.516;13.670;2023-03-23T14:55:36;2.05;;;1.63;;
41711;SDS011;27399;51.516;13.670;2023-03-23T14:58:05;1.38;;;0.93;;
41711;SDS011;27399;51.516;13.670;2023-03-23T15:00:34;1.60;;;1.00;;
41711;SDS011;27399;51.516;13.670;2023-03-23T15:03:05;1.27;;;0.70;;
41711;SDS011;27399;51.516;13.670;2023-03-23T15:05:37;1.17;;;0.80;;
41711;SDS011;27399;51.516;13.670;2023-03-23T15:08:12;1.63;;;0.90;;
41711;SDS011;27399;51.516;13.670;2023-03-23T15:13:51;2.08;;;0.90;;
41711;SDS011;27399;51.516;13.670;2023-03-23T15:16:27;2.05;;;0.95;;
41711;SDS011;27399;51.516;13.670;2023-03-23T15:21:35;1.25;;;0.70;;
41711;SDS011;27399;51.516;13.670;2023-03-23T15:24:25;1.42;;;0.90;;
41711;SDS011;27399;51.516;13.670;2023-03-23T15:27:12;1.98;;;0.80;;
41711;SDS011;27399;51.516;13.670;2023-03-23T15:29:47;1.17;;;0.50;;
41711;SDS011;27399;51.516;13.670;2023-03-23T15:32:19;3.28;;;0.68;;
41711;SDS011;27399;51.516;13.670;2023-03-23T15:34:56;2.50;;;0.70;;
41711;SDS011;27399;51.516;13.670;2023-03-23T15:37:30;1.10;;;0.70;;
41711;SDS011;27399;51.516;13.670;2023-03-23T15:39:57;1.38;;;0.90;;
41711;SDS011;27399;51.516;13.670;2023-03-23T15:42:25;1.77;;;0.75;;
41711;SDS011;27399;51.516;13.670;2023-03-23T15:47:35;1.00;;;0.70;;
41711;SDS011;27399;51.516;13.670;2023-03-23T15:50:04;2.40;;;0.70;;
41711;SDS011;27399;51.516;13.670;2023-03-23T15:52:40;3.28;;;0.93;;
41711;SDS011;27399;51.516;13.670;2023-03-23T15:57:44;1.23;;;0.60;;
41711;SDS011;27399;51.516;13.670;2023-03-23T16:00:10;1.58;;;0.93;;
41711;SDS011;27399;51.516;13.670;2023-03-23T16:02:37;4.10;;;0.80;;
41711;SDS011;27399;51.516;13.670;2023-03-23T16:05:02;1.42;;;0.60;;
41711;SDS011;27399;51.516;13.670;2023-03-23T16:07:29;1.05;;;0.88;;
41711;SDS011;27399;51.516;13.670;2023-03-23T16:09:54;1.80;;;0.80;;
41711;SDS011;27399;51.516;13.670;2023-03-23T16:12:20;1.33;;;0.90;;
41711;SDS011;27399;51.516;13.670;2023-03-23T16:14:46;1.17;;;0.70;;
41711;SDS011;27399;51.516;13.670;2023-03-23T16:17:12;1.73;;;0.70;;
41711;SDS011;27399;51.516;13.670;2023-03-23T16:19:42;1.40;;;0.85;;
41711;SDS011;27399;51.516;13.670;2023-03-23T16:22:08;2.17;;;1.30;;
41711;SDS011;27399;51.516;13.670;2023-03-23T16:24:34;0.88;;;0.80;;
41711;SDS011;27399;51.516;13.670;2023-03-23T16:26:59;2.65;;;0.70;;
41711;SDS011;27399;51.516;13.670;2023-03-23T16:29:25;1.40;;;0.82;;
41711;SDS011;27399;51.516;13.670;2023-03-23T16:31:51;1.48;;;0.90;;
41711;SDS011;27399;51.516;13.670;2023-03-23T16:34:17;1.13;;;0.88;;
41711;SDS011;27399;51.516;13.670;2023-03-23T16:36:43;2.65;;;0.82;;
41711;SDS011;27399;51.516;13.670;2023-03-23T16:39:10;2.08;;;0.93;;
41711;SDS011;27399;51.516;13.670;2023-03-23T16:41:36;1.55;;;0.80;;
41711;SDS011;27399;51.516;13.670;2023-03-23T16:44:02;1.10;;;0.70;;
41711;SDS011;27399;51.516;13.670;2023-03-23T16:46:28;4.00;;;1.02;;
41711;SDS011;27399;51.516;13.670;2023-03-23T16:48:54;2.25;;;0.82;;
41711;SDS011;27399;51.516;13.670;2023-03-23T16:51:20;3.35;;;0.80;;
41711;SDS011;27399;51.516;13.670;2023-03-23T16:53:46;1.65;;;0.90;;
41711;SDS011;27399;51.516;13.670;2023-03-23T16:56:11;1.95;;;0.90;;
41711;SDS011;27399;51.516;13.670;2023-03-23T16:58:37;2.80;;;1.00;;